Time;durP1;ratioP1;P1;durP2;ratioP2;P2;SDS_P1;SDS_P2;PMS_P1;PMS_P2;Temp;Humidity;BMP_temperature;BMP_pressure;BME280_temperature;BME280_humidity;BME280_pressure;Samples;Min_cycle;Max_cycle;Signal;HPM_P1;HPM_P2
2021/04/12 00:01:48;;;;;;;2.08;2.08;;;;;;;-2.11;100.00;100748.09;5082384;28;20067;-83
2021/04/12 00:05:11;;;;;;;1.98;1.90;;;;;;;-2.15;100.00;100741.78;5095219;28;20510;-83
2021/04/12 00:08:37;;;;;;;1.90;1.90;;;;;;;-2.19;100.00;100756.53;5094474;28;20066;-82
2021/04/12 00:11:50;;;;;;;1.65;1.65;;;;;;;-2.24;100.00;100748.66;5094269;28;20059;-83
2021/04/12 00:14:59;;;;;;;3.38;3.10;;;;;;;-2.27;100.00;100749.41;5081566;28;20047;-83
2021/04/12 00:18:12;;;;;;;2.17;2.08;;;;;;;-2.30;100.00;100746.22;5094129;28;20067;-82
2021/04/12 00:21:29;;;;;;;3.60;3.40;;;;;;;-2.31;100.00;100752.88;5112809;28;20050;-82
2021/04/12 00:24:56;;;;;;;1.70;1.70;;;;;;;-2.35;100.00;100757.47;5101351;28;20097;-81
2021/04/12 00:28:19;;;;;;;3.03;2.42;;;;;;;-2.40;100.00;100763.22;5101395;28;20407;-81
2021/04/12 00:31:27;;;;;;;2.50;2.30;;;;;;;-2.44;100.00;100761.59;5101333;28;20395;-82
2021/04/12 00:34:46;;;;;;;2.13;2.13;;;;;;;-2.47;100.00;100767.81;5114084;28;20047;-82
2021/04/12 00:37:59;;;;;;;2.05;2.05;;;;;;;-2.49;100.00;100775.56;5101425;28;20051;-81
2021/04/12 00:41:08;;;;;;;2.72;2.63;;;;;;;-2.52;100.00;100757.19;5101044;28;20051;-81
2021/04/12 00:44:46;;;;;;;1.77;1.77;;;;;;;-2.51;100.00;100761.47;5101083;28;20515;-81
2021/04/12 00:48:05;;;;;;;2.55;2.45;;;;;;;-2.52;100.00;100759.94;5113705;28;20411;-81
2021/04/12 00:51:43;;;;;;;1.55;1.55;;;;;;;-2.50;100.00;100757.63;5113883;28;20042;-81
2021/04/12 00:55:09;;;;;;;1.90;1.80;;;;;;;-2.43;100.00;100757.72;5047991;28;20054;-80
2021/04/12 00:58:27;;;;;;;2.45;2.30;;;;;;;-2.38;100.00;100749.22;5100840;28;20054;-81
2021/04/12 01:01:48;;;;;;;2.03;1.98;;;;;;;-2.32;100.00;100747.78;5100552;28;20047;-81
2021/04/12 01:04:55;;;;;;;10.25;2.22;;;;;;;-2.29;100.00;100741.56;5100407;28;20404;-80
2021/04/12 01:08:36;;;;;;;2.13;1.92;;;;;;;-2.25;100.00;100742.41;5100571;28;20043;-81
2021/04/12 01:12:00;;;;;;;7.88;2.55;;;;;;;-2.21;100.00;100740.53;5100395;28;20506;-81
2021/04/12 01:15:06;;;;;;;1.35;1.35;;;;;;;-2.19;100.00;100735.50;5113245;28;20050;-81
2021/04/12 01:18:26;;;;;;;2.28;2.28;;;;;;;-2.17;100.00;100735.91;5113141;28;20049;-81
2021/04/12 01:21:55;;;;;;;1.88;1.88;;;;;;;-2.16;100.00;100732.03;5112654;28;20051;-80
2021/04/12 01:25:39;;;;;;;1.70;1.70;;;;;;;-2.12;100.00;100740.28;5092303;28;20046;-81
2021/04/12 01:29:01;;;;;;;1.85;1.85;;;;;;;-2.09;100.00;100734.84;5100029;28;20573;-80
2021/04/12 01:32:17;;;;;;;1.95;1.88;;;;;;;-2.05;100.00;100743.88;5112739;28;20392;-81
2021/04/12 01:35:27;;;;;;;2.95;2.85;;;;;;;-2.07;100.00;100743.47;5099912;28;20051;-81
2021/04/12 01:38:41;;;;;;;2.05;2.05;;;;;;;-2.09;100.00;100734.84;5099638;28;20063;-80
2021/04/12 01:42:00;;;;;;;17.45;2.70;;;;;;;-2.09;100.00;100737.59;5112268;28;20070;-81
2021/04/12 01:45:21;;;;;;;1.77;1.77;;;;;;;-2.11;100.00;100739.09;5100057;28;20043;-81
2021/04/12 01:48:48;;;;;;;2.33;2.22;;;;;;;-2.09;100.00;100737.59;5112651;28;20058;-81
2021/04/12 01:52:10;;;;;;;1.92;1.90;;;;;;;-2.06;100.00;100738.78;5113092;28;20751;-80
2021/04/12 01:55:22;;;;;;;;;;;;;;;-2.04;100.00;100748.19;5100529;28;20055;-80
2021/04/12 01:58:40;;;;;;;2.83;2.63;;;;;;;-2.00;100.00;100737.31;5112927;28;19911;-80
2021/04/12 02:02:05;;;;;;;1.90;1.90;;;;;;;-2.00;100.00;100729.91;5112648;28;20046;-81
2021/04/12 02:05:21;;;;;;;2.08;2.08;;;;;;;-2.01;100.00;100736.53;5112363;28;20564;-80
2021/04/12 02:08:25;;;;;;;1.40;1.40;;;;;;;-1.98;100.00;100729.53;5099690;28;20047;-80
2021/04/12 02:11:34;;;;;;;1.90;1.90;;;;;;;-1.96;100.00;100730.75;5099486;28;20042;-81
2021/04/12 02:14:59;;;;;;;1.73;1.73;;;;;;;-1.97;100.00;100734.63;5112092;28;20370;-81
2021/04/12 02:18:29;;;;;;;1.85;1.85;;;;;;;-1.96;100.00;100732.69;5099553;28;20058;-81
2021/04/12 02:21:39;;;;;;;1.27;1.27;;;;;;;-1.95;100.00;100742.47;5078859;28;20400;-81
2021/04/12 02:24:58;;;;;;;18.92;2.95;;;;;;;-1.94;100.00;100739.34;5092893;28;20043;-81
2021/04/12 02:28:24;;;;;;;2.75;2.55;;;;;;;-1.95;100.00;100739.72;5092629;28;20040;-80
2021/04/12 02:31:58;;;;;;;2.30;2.17;;;;;;;-1.94;100.00;100742.09;5101901;28;20051;-81
2021/04/12 02:35:18;;;;;;;4.45;2.72;;;;;;;-1.94;100.00;100755.72;5078900;28;20389;-81
2021/04/12 02:38:37;;;;;;;1.77;1.73;;;;;;;-1.91;100.00;100749.53;5091154;28;20055;-81
2021/04/12 02:41:49;;;;;;;2.78;2.15;;;;;;;-1.90;100.00;100748.38;5091137;28;20055;-81
2021/04/12 02:45:03;;;;;;;2.90;2.53;;;;;;;-1.86;100.00;100751.94;5078800;28;20059;-81
2021/04/12 02:48:31;;;;;;;2.55;2.45;;;;;;;-1.81;100.00;100759.81;5091325;28;20047;-81
2021/04/12 02:51:34;;;;;;;2.88;2.65;;;;;;;-1.80;100.00;100755.91;5078709;28;20503;-80
2021/04/12 02:55:04;;;;;;;2.22;2.13;;;;;;;-1.80;100.00;100758.63;5078342;28;20162;-80
2021/04/12 02:58:34;;;;;;;2.90;2.70;;;;;;;-1.86;100.00;100754.66;5091328;28;20047;-80
2021/04/12 03:02:09;;;;;;;4.60;2.60;;;;;;;-1.93;100.00;100765.50;5091054;28;20051;-80
2021/04/12 03:05:50;;;;;;;2.33;2.15;;;;;;;-2.00;100.00;100759.94;5091351;28;20051;-81
2021/04/12 03:09:19;;;;;;;2.75;2.35;;;;;;;-2.06;100.00;100761.41;5090169;28;20047;-80
2021/04/12 03:12:39;;;;;;;2.35;1.83;;;;;;;-2.09;100.00;100753.97;5091768;28;20046;-80
2021/04/12 03:16:21;;;;;;;6.80;2.70;;;;;;;-2.09;100.00;100761.34;5090960;28;20059;-80
2021/04/12 03:19:55;;;;;;;2.15;2.05;;;;;;;-2.11;100.00;100759.00;5068844;28;20047;-81
2021/04/12 03:23:14;;;;;;;4.97;2.83;;;;;;;-2.12;100.00;100751.94;5092029;28;20503;-80
2021/04/12 03:26:32;;;;;;;3.00;2.47;;;;;;;-2.15;100.00;100758.16;5079259;28;20048;-80
2021/04/12 03:29:45;;;;;;;11.57;2.83;;;;;;;-2.19;100.00;100770.97;5082837;28;20047;-80
2021/04/12 03:33:30;;;;;;;2.03;1.92;;;;;;;-2.24;100.00;100760.38;5094190;28;20044;-81
2021/04/12 03:36:59;;;;;;;12.88;2.30;;;;;;;-2.31;100.00;100765.69;5094995;28;20051;-78
2021/04/12 03:40:26;;;;;;;2.47;2.38;;;;;;;-2.38;100.00;100754.69;5095141;28;20047;-78
2021/04/12 03:43:52;;;;;;;3.13;1.95;;;;;;;-2.39;100.00;100756.66;5095439;28;20503;-79
2021/04/12 03:47:02;;;;;;;3.38;3.08;;;;;;;-2.39;100.00;100764.03;5082927;28;20047;-80
2021/04/12 03:50:34;;;;;;;1.70;1.70;;;;;;;-2.42;100.00;100770.19;5095029;28;20514;-78
2021/04/12 03:53:43;;;;;;;1.77;1.77;;;;;;;-2.46;100.00;100769.38;5082447;28;20058;-78
2021/04/12 03:56:52;;;;;;;1.75;1.75;;;;;;;-2.49;100.00;100761.94;5082295;28;20043;-78
2021/04/12 04:00:04;;;;;;;1.50;1.50;;;;;;;-2.53;100.00;100775.50;5095046;28;20047;-79
2021/04/12 04:03:27;;;;;;;3.58;1.67;;;;;;;-2.54;100.00;100767.69;5083202;28;20051;-79
2021/04/12 04:06:51;;;;;;;1.55;1.55;;;;;;;-2.55;100.00;100769.63;5082445;28;20531;-78
2021/04/12 04:10:32;;;;;;;2.40;2.30;;;;;;;-2.55;100.00;100774.28;5095046;28;20046;-80
2021/04/12 04:13:42;;;;;;;2.78;2.63;;;;;;;-2.62;100.00;100771.44;5081942;28;20039;-80
2021/04/12 04:17:18;;;;;;;2.63;2.42;;;;;;;-2.69;100.00;100771.31;5094666;28;20431;-80
2021/04/12 04:20:22;;;;;;;2.88;2.40;;;;;;;-2.77;100.00;100781.31;5082098;28;20094;-80
2021/04/12 04:23:56;;;;;;;2.55;2.28;;;;;;;-2.86;100.00;100777.25;5094575;28;20392;-79
2021/04/12 04:27:03;;;;;;;4.10;3.17;;;;;;;-2.92;100.00;100789.63;5094869;28;20039;-79
2021/04/12 04:30:44;;;;;;;1.77;1.77;;;;;;;-2.95;100.00;100790.34;5094410;28;20047;-79
2021/04/12 04:34:17;;;;;;;2.60;2.50;;;;;;;-3.07;100.00;100799.44;5094145;28;20047;-79
2021/04/12 04:37:49;;;;;;;2.72;2.47;;;;;;;-3.16;100.00;100796.94;5094524;28;20063;-78
2021/04/12 04:41:03;;;;;;;8.70;2.22;;;;;;;-3.20;100.00;100807.00;5081999;28;20063;-79
2021/04/12 04:44:12;;;;;;;2.17;1.88;;;;;;;-3.28;100.00;100810.72;5094586;28;20539;-79
2021/04/12 04:47:51;;;;;;;2.42;2.33;;;;;;;-3.32;100.00;100812.59;5081609;28;20055;-79
2021/04/12 04:51:15;;;;;;;2.08;2.08;;;;;;;-3.34;100.00;100825.00;5093910;28;20051;-78
2021/04/12 04:54:54;;;;;;;2.25;2.20;;;;;;;-3.40;100.00;100819.03;5081428;28;20401;-78
2021/04/12 04:58:01;;;;;;;7.68;2.30;;;;;;;-3.37;100.00;100833.88;5081211;28;20051;-79
2021/04/12 05:01:11;;;;;;;2.40;1.95;;;;;;;-3.26;100.00;100835.66;5094112;28;20047;-79
2021/04/12 05:04:42;;;;;;;4.78;3.05;;;;;;;-3.15;100.00;100835.88;5081198;28;20467;-79
2021/04/12 05:07:49;;;;;;;2.22;2.20;;;;;;;-3.08;100.00;100831.38;5081129;28;20512;-78
2021/04/12 05:11:04;;;;;;;1.60;1.60;;;;;;;-3.07;100.00;100843.81;5080923;28;20047;-79
2021/04/12 05:14:32;;;;;;;2.30;2.30;;;;;;;-3.03;100.00;100848.56;5081632;28;20043;-79
2021/04/12 05:18:10;;;;;;;2.20;2.10;;;;;;;-2.88;100.00;100861.31;5081117;28;20480;-78
2021/04/12 05:21:40;;;;;;;8.68;2.78;;;;;;;-2.75;100.00;100854.56;5112270;28;20067;-78
2021/04/12 05:25:12;;;;;;;7.82;3.08;;;;;;;-2.62;100.00;100864.16;5113512;28;20519;-80
2021/04/12 05:28:49;;;;;;;3.03;2.83;;;;;;;-2.49;100.00;100863.59;5101503;28;20051;-78
2021/04/12 05:32:31;;;;;;;2.38;2.13;;;;;;;-2.40;100.00;100860.63;5113863;28;20047;-77
2021/04/12 05:35:56;;;;;;;4.55;3.65;;;;;;;-2.31;100.00;100869.34;5113009;28;20062;-76
2021/04/12 05:39:23;;;;;;;7.95;3.15;;;;;;;-2.23;100.00;100873.75;5083653;28;20055;-77
2021/04/12 05:42:26;;;;;;;6.03;4.45;;;;;;;-2.14;100.00;100874.31;5072902;28;20043;-78
2021/04/12 05:45:39;;;;;;;4.55;4.15;;;;;;;-2.10;100.00;100879.84;5071875;28;20039;-78
2021/04/12 05:49:01;;;;;;;9.02;3.15;;;;;;;-2.04;100.00;100878.38;5071761;28;20062;-79
2021/04/12 05:52:26;;;;;;;5.10;3.58;;;;;;;-2.00;100.00;100874.56;5071231;28;20047;-78
2021/04/12 05:56:01;;;;;;;6.53;4.00;;;;;;;-1.94;100.00;100889.47;5071718;28;20432;-78
2021/04/12 05:59:36;;;;;;;2.70;2.55;;;;;;;-1.88;100.00;100896.19;5071892;28;20043;-78
2021/04/12 06:02:55;;;;;;;3.05;2.85;;;;;;;-1.86;100.00;100884.88;5072338;28;20063;-78
2021/04/12 06:06:34;;;;;;;4.32;2.92;;;;;;;-1.87;100.00;100891.50;5072202;28;20393;-80
2021/04/12 06:10:02;;;;;;;3.70;3.10;;;;;;;-1.84;100.00;100905.19;5062831;28;20047;-79
2021/04/12 06:13:43;;;;;;;4.05;3.13;;;;;;;-1.73;100.00;100906.16;5072372;28;20054;-79
2021/04/12 06:16:52;;;;;;;4.70;3.13;;;;;;;-1.60;100.00;100918.44;5074436;28;20063;-78
2021/04/12 06:20:28;;;;;;;3.15;2.95;;;;;;;-1.47;100.00;100913.56;5073630;28;20130;-77
2021/04/12 06:24:01;;;;;;;7.03;3.70;;;;;;;-1.36;100.00;100921.91;5056441;28;20081;-79
2021/04/12 06:27:11;;;;;;;2.10;2.05;;;;;;;-1.26;100.00;100933.00;5064906;28;20036;-78
2021/04/12 06:30:41;;;;;;;2.60;2.40;;;;;;;-1.13;100.00;100933.56;5052431;28;20048;-75
2021/04/12 06:34:22;;;;;;;1.60;1.60;;;;;;;-1.02;100.00;100929.03;5051252;28;20068;-78
2021/04/12 06:37:51;;;;;;;3.35;3.13;;;;;;;-0.94;100.00;100936.94;5050157;28;20072;-73
2021/04/12 06:41:33;;;;;;;8.38;4.20;;;;;;;-0.83;100.00;100948.00;5050493;28;20055;-73
2021/04/12 06:44:36;;;;;;;3.45;2.80;;;;;;;-0.70;100.00;100943.88;5050829;28;20055;-73
2021/04/12 06:47:49;;;;;;;2.85;2.65;;;;;;;-0.62;100.00;100948.25;5050297;28;20052;-73
2021/04/12 06:51:13;;;;;;;10.32;4.07;;;;;;;-0.52;100.00;100953.06;5050865;28;20444;-74
2021/04/12 06:54:43;;;;;;;2.63;2.53;;;;;;;-0.41;100.00;100953.97;5049585;28;20049;-74
2021/04/12 06:57:56;;;;;;;1.95;1.95;;;;;;;-0.27;100.00;100958.81;5050808;28;20056;-75
2021/04/12 07:01:24;;;;;;;2.60;2.50;;;;;;;-0.14;100.00;100963.63;5050868;28;20048;-74
2021/04/12 07:04:30;;;;;;;2.15;2.05;;;;;;;0.05;100.00;100953.63;5055004;28;20048;-75
2021/04/12 07:07:37;;;;;;;2.50;2.30;;;;;;;0.15;100.00;100964.69;5073536;28;20048;-78
2021/04/12 07:11:12;;;;;;;1.95;1.95;;;;;;;0.28;100.00;100965.19;5075878;28;20047;-74
2021/04/12 07:14:53;;;;;;;4.43;1.98;;;;;;;0.41;100.00;100972.72;5070877;28;20047;-78
2021/04/12 07:18:35;;;;;;;3.88;2.88;;;;;;;0.66;100.00;100972.91;5076478;28;20397;-76
2021/04/12 07:22:15;;;;;;;3.47;3.28;;;;;;;0.75;100.00;100970.63;5074669;28;20047;-78
2021/04/12 07:25:50;;;;;;;2.50;2.38;;;;;;;0.76;100.00;100966.69;5055900;28;20326;-76
2021/04/12 07:29:06;;;;;;;22.63;3.22;;;;;;;0.86;100.00;100985.19;5070246;28;20063;-75
2021/04/12 07:32:28;;;;;;;1.80;1.75;;;;;;;1.03;100.00;100979.03;5069342;28;20055;-78
2021/04/12 07:35:50;;;;;;;2.75;2.55;;;;;;;1.18;100.00;100983.41;5068826;28;20044;-77
2021/04/12 07:39:18;;;;;;;3.17;2.88;;;;;;;1.36;100.00;100984.28;5090421;28;20055;-77
2021/04/12 07:42:43;;;;;;;2.85;2.17;;;;;;;1.51;100.00;100985.91;5104126;28;20559;-77
2021/04/12 07:46:13;;;;;;;4.28;2.50;;;;;;;1.63;100.00;100984.75;5116719;28;20551;-76
2021/04/12 07:49:36;;;;;;;4.65;2.60;;;;;;;1.77;100.00;100989.53;5104116;28;20047;-76
2021/04/12 07:52:58;;;;;;;6.32;2.92;;;;;;;1.99;100.00;100982.91;5103518;28;20514;-75
2021/04/12 07:56:52;;;;;;;5.38;3.10;;;;;;;2.10;100.00;100992.72;5103341;28;20483;-78
2021/04/12 07:59:59;;;;;;;3.28;2.65;;;;;;;2.32;100.00;100988.03;5116272;28;20051;-76
2021/04/12 08:03:54;;;;;;;8.52;2.75;;;;;;;2.47;100.00;100997.09;5116168;28;20050;-76
2021/04/12 08:07:15;;;;;;;8.48;2.72;;;;;;;2.60;100.00;100995.50;5050914;28;20062;-78
2021/04/12 08:10:40;;;;;;;4.32;3.03;;;;;;;2.71;100.00;101008.06;5103267;28;20051;-77
2021/04/12 08:14:21;;;;;;;2.25;2.00;;;;;;;2.79;100.00;101000.59;5101869;28;20047;-78
2021/04/12 08:17:47;;;;;;;3.25;2.38;;;;;;;2.89;100.00;101003.34;5103248;28;20395;-78
2021/04/12 08:21:15;;;;;;;9.40;2.55;;;;;;;2.90;100.00;101007.63;5100635;28;20047;-76
2021/04/12 08:24:40;;;;;;;5.20;2.35;;;;;;;3.00;100.00;101015.09;5094528;28;20047;-77
2021/04/12 08:28:21;;;;;;;6.10;2.65;;;;;;;3.06;100.00;101024.53;5094636;28;20043;-78
2021/04/12 08:32:03;;;;;;;2.83;2.45;;;;;;;3.20;100.00;101028.44;5094207;28;20059;-78
2021/04/12 08:35:21;;;;;;;1.23;1.17;;;;;;;3.18;100.00;101025.28;5095180;28;20129;-78
2021/04/12 08:38:43;;;;;;;12.55;2.60;;;;;;;3.30;100.00;101027.59;5093933;28;20059;-76
2021/04/12 08:41:51;;;;;;;6.60;2.90;;;;;;;3.42;100.00;101025.19;5094216;28;20496;-78
2021/04/12 08:45:20;;;;;;;3.13;1.30;;;;;;;3.53;100.00;101030.69;5094032;28;20062;-77
2021/04/12 08:49:05;;;;;;;3.42;1.92;;;;;;;3.69;100.00;101033.75;5094221;28;20508;-78
2021/04/12 08:52:39;;;;;;;3.22;2.60;;;;;;;3.99;100.00;101031.25;5094202;28;20047;-78
2021/04/12 08:55:58;;;;;;;2.30;2.10;;;;;;;4.17;100.00;101042.19;5093906;28;20051;-77
2021/04/12 08:59:01;;;;;;;3.20;1.90;;;;;;;4.39;100.00;101033.38;5094675;28;20062;-80
2021/04/12 09:02:32;;;;;;;1.27;1.08;;;;;;;4.30;100.00;101030.28;5093799;28;20047;-81
2021/04/12 09:06:03;;;;;;;3.50;1.63;;;;;;;4.29;100.00;101047.22;5093890;28;20043;-79
2021/04/12 09:09:22;;;;;;;1.27;1.05;;;;;;;4.19;100.00;101051.63;5094776;28;20770;-78
2021/04/12 09:12:44;;;;;;;1.00;1.00;;;;;;;4.34;100.00;101044.81;5093463;28;20047;-75
2021/04/12 09:15:58;;;;;;;4.88;2.03;;;;;;;4.39;100.00;101044.41;5094208;28;20043;-75
2021/04/12 09:19:25;;;;;;;2.17;1.15;;;;;;;4.46;100.00;101044.34;5093227;28;20396;-76
2021/04/12 09:23:26;;;;;;;8.13;3.67;;;;;;;4.95;100.00;101054.22;5076864;28;20051;-75
2021/04/12 09:26:42;;;;;;;1.67;1.42;;;;;;;5.17;100.00;101060.31;5000921;28;20041;-75
2021/04/12 09:29:55;;;;;;;2.38;1.77;;;;;;;5.16;100.00;101056.75;5020002;28;20064;-74
2021/04/12 09:33:19;;;;;;;2.45;1.80;;;;;;;4.91;100.00;101063.72;5101808;28;20425;-77
2021/04/12 09:36:36;;;;;;;1.25;1.25;;;;;;;4.97;100.00;101056.56;5101582;28;20038;-77
2021/04/12 09:40:17;;;;;;;2.85;1.80;;;;;;;5.14;100.00;101066.63;5114084;28;20054;-78
2021/04/12 09:43:45;;;;;;;3.70;1.67;;;;;;;5.44;100.00;101069.50;5101919;28;20384;-80
2021/04/12 09:47:13;;;;;;;2.15;1.17;;;;;;;5.53;100.00;101069.78;5101650;28;20046;-79
2021/04/12 09:50:34;;;;;;;3.20;1.17;;;;;;;5.56;100.00;101077.25;5114125;28;20066;-77
2021/04/12 09:54:11;;;;;;;1.27;1.23;;;;;;;5.64;100.00;101081.50;5114210;28;20376;-80
2021/04/12 09:57:18;;;;;;;1.10;0.75;;;;;;;5.71;100.00;101083.41;5114427;28;20051;-79
2021/04/12 10:00:59;;;;;;;3.03;1.52;;;;;;;5.77;100.00;101081.75;5101490;28;20054;-80
2021/04/12 10:04:24;;;;;;;0.77;0.77;;;;;;;5.82;100.00;101084.88;5100970;28;20038;-79
2021/04/12 10:08:00;;;;;;;4.03;1.75;;;;;;;5.90;100.00;101091.88;5113355;28;20047;-80
2021/04/12 10:11:11;;;;;;;1.02;1.00;;;;;;;5.97;100.00;101091.03;5038821;28;20051;-80
2021/04/12 10:14:23;;;;;;;1.45;1.45;;;;;;;6.10;100.00;101098.38;5101053;28;20066;-80
2021/04/12 10:17:40;;;;;;;1.30;0.70;;;;;;;6.11;100.00;101097.16;5113188;28;20043;-79
2021/04/12 10:21:16;;;;;;;0.90;0.90;;;;;;;6.22;100.00;101091.47;5096734;28;20046;-80
2021/04/12 10:24:25;;;;;;;2.55;1.58;;;;;;;6.27;100.00;101095.75;5080331;28;20059;-80
2021/04/12 10:27:36;;;;;;;0.60;0.60;;;;;;;6.40;100.00;101102.28;5081006;28;20043;-78
2021/04/12 10:31:05;;;;;;;4.43;1.02;;;;;;;6.62;100.00;101101.59;5080742;28;20055;-79
2021/04/12 10:34:21;;;;;;;0.90;0.63;;;;;;;6.77;100.00;101099.38;5094174;28;20047;-80
2021/04/12 10:37:31;;;;;;;2.78;0.98;;;;;;;6.99;100.00;101106.16;5100322;28;20059;-79
2021/04/12 10:41:12;;;;;;;1.92;0.95;;;;;;;7.25;100.00;101105.31;5101203;28;20067;-77
2021/04/12 10:44:39;;;;;;;0.60;0.60;;;;;;;7.57;100.00;101119.38;5101107;28;20042;-79
2021/04/12 10:48:22;;;;;;;0.43;0.32;;;;;;;6.99;100.00;101100.59;5100507;28;20051;-77
2021/04/12 10:51:31;;;;;;;0.50;0.50;;;;;;;6.31;100.00;101110.31;5038199;28;20043;-77
2021/04/12 10:54:41;;;;;;;1.30;0.90;;;;;;;5.87;100.00;101114.03;5100387;28;20062;-78
2021/04/12 10:57:59;;;;;;;0.60;0.60;;;;;;;5.51;100.00;101113.63;5100686;28;20051;-79
2021/04/12 11:01:06;;;;;;;0.43;0.40;;;;;;;5.61;100.00;101118.25;5100655;28;20050;-77
2021/04/12 11:04:12;;;;;;;1.20;0.98;;;;;;;5.93;100.00;101102.09;5100498;28;20051;-78
2021/04/12 11:07:45;;;;;;;1.40;0.73;;;;;;;6.30;100.00;101104.03;5113112;28;20043;-77
2021/04/12 11:11:16;;;;;;;0.32;0.32;;;;;;;6.62;100.00;101103.56;5084012;28;20507;-78
2021/04/12 11:14:33;;;;;;;3.08;1.40;;;;;;;6.76;100.00;101097.78;5100557;28;20101;-77
2021/04/12 11:17:44;;;;;;;0.63;0.45;;;;;;;7.12;100.00;101103.56;5112864;28;20797;-79
2021/04/12 11:20:51;;;;;;;0.63;0.60;;;;;;;7.70;100.00;101110.41;5097887;28;20043;-76
2021/04/12 11:24:02;;;;;;;0.82;0.50;;;;;;;7.81;100.00;101105.44;5080034;28;20487;-78
2021/04/12 11:27:29;;;;;;;;;;;;;;;7.95;100.00;101105.19;5093129;28;20062;-82
2021/04/12 11:30:41;;;;;;;0.57;0.30;;;;;;;7.79;100.00;101111.44;5080139;28;19911;-79
2021/04/12 11:33:58;;;;;;;0.13;0.10;;;;;;;7.53;100.00;101124.19;5080217;28;20039;-81
2021/04/12 11:37:10;;;;;;;0.80;0.73;;;;;;;7.51;100.00;101121.03;5092746;28;20051;-81
2021/04/12 11:40:19;;;;;;;0.35;0.35;;;;;;;7.53;100.00;101124.19;5079906;28;20051;-76
2021/04/12 11:43:38;;;;;;;4.78;1.30;;;;;;;7.71;100.00;101128.63;5080094;28;20062;-80
2021/04/12 11:47:20;;;;;;;1.17;0.88;;;;;;;7.84;100.00;101126.78;5092345;28;20208;-78
2021/04/12 11:51:02;;;;;;;1.10;0.55;;;;;;;7.93;100.00;101129.75;5084505;28;20051;-83
2021/04/12 11:54:08;;;;;;;;;;;;;;;8.07;100.00;101129.50;5084402;28;20070;-83
2021/04/12 11:57:52;;;;;;;0.75;0.35;;;;;;;8.24;100.00;101131.09;5084050;28;19915;-82
2021/04/12 12:00:59;;;;;;;0.35;0.20;;;;;;;8.36;100.00;101125.72;5083393;28;20043;-83
2021/04/12 12:04:13;;;;;;;1.15;0.40;;;;;;;8.64;100.00;101118.75;5083538;28;20052;-85
2021/04/12 12:07:37;;;;;;;0.65;0.55;;;;;;;9.12;100.00;101113.22;5083186;28;20051;-81
2021/04/12 12:10:57;;;;;;;2.10;0.90;;;;;;;9.08;100.00;101125.63;5096494;28;20051;-80
2021/04/12 12:14:26;;;;;;;0.20;0.20;;;;;;;9.05;96.77;101121.72;5083254;28;20054;-81
2021/04/12 12:17:44;;;;;;;0.22;0.22;;;;;;;9.25;94.20;101129.22;5082943;28;20051;-85
2021/04/12 12:20:58;;;;;;;0.55;0.55;;;;;;;9.32;89.88;101120.66;5097405;28;20396;-79
2021/04/12 12:24:37;;;;;;;0.35;0.10;;;;;;;9.07;81.95;101119.28;5103436;28;20376;-77
2021/04/12 12:27:52;;;;;;;0.40;0.40;;;;;;;8.87;88.03;101126.94;5075879;28;20093;-79
2021/04/12 12:31:33;;;;;;;0.32;0.32;;;;;;;9.06;95.04;101125.28;5102790;28;20042;-78
2021/04/12 12:34:54;;;;;;;0.45;0.20;;;;;;;9.09;90.50;101138.31;5115603;28;20058;-79
2021/04/12 12:38:10;;;;;;;2.63;0.90;;;;;;;8.65;91.81;101131.41;5102842;28;20593;-81
2021/04/12 12:41:24;;;;;;;0.20;0.20;;;;;;;7.99;92.60;101139.16;5115384;28;20047;-87
2021/04/12 12:44:29;;;;;;;1.58;0.47;;;;;;;7.49;94.67;101142.84;5102560;28;20396;-78
2021/04/12 12:47:37;;;;;;;0.57;0.50;;;;;;;7.11;100.00;101141.53;5102839;28;20039;-76
2021/04/12 12:51:03;;;;;;;0.55;0.55;;;;;;;7.27;100.00;101138.91;5101793;28;20050;-76
2021/04/12 12:54:33;;;;;;;0.63;0.43;;;;;;;7.65;96.44;101136.63;5101836;28;20050;-78
2021/04/12 12:57:43;;;;;;;0.35;0.35;;;;;;;8.06;89.72;101139.00;5081865;28;20058;-77
2021/04/12 13:00:53;;;;;;;0.55;0.40;;;;;;;8.50;83.97;101132.94;5100972;28;20058;-78
2021/04/12 13:04:09;;;;;;;0.68;0.68;;;;;;;8.90;83.33;101136.41;5114151;28;20054;-79
2021/04/12 13:07:19;;;;;;;1.33;0.32;;;;;;;9.12;80.50;101135.44;5102339;28;20039;-79
2021/04/12 13:10:26;;;;;;;0.43;0.32;;;;;;;9.27;77.68;101126.78;5102267;28;20497;-80
2021/04/12 13:13:33;;;;;;;0.40;0.40;;;;;;;9.44;84.17;101133.88;5114674;28;20051;-84
2021/04/12 13:16:37;;;;;;;0.63;0.40;;;;;;;9.15;79.92;101128.25;5102128;28;20368;-81
2021/04/12 13:19:51;;;;;;;1.10;0.52;;;;;;;8.47;81.59;101130.28;5109498;28;20519;-83
2021/04/12 13:23:04;;;;;;;0.80;0.43;;;;;;;7.93;90.77;101135.31;5081784;28;20047;-85
2021/04/12 13:26:33;;;;;;;2.08;0.77;;;;;;;8.03;93.14;101132.34;5094527;28;20043;-80
2021/04/12 13:30:10;;;;;;;1.38;1.00;;;;;;;8.39;95.54;101129.63;5094197;28;20491;-81
2021/04/12 13:33:49;;;;;;;3.50;0.55;;;;;;;8.74;92.93;101128.84;5065454;28;20043;-82
2021/04/12 13:37:12;;;;;;;0.32;0.32;;;;;;;8.92;93.08;101136.75;5081409;28;20063;-82
2021/04/12 13:40:29;;;;;;;0.43;0.35;;;;;;;8.96;92.01;101132.69;5081811;28;20055;-82
2021/04/12 13:43:35;;;;;;;2.90;1.10;;;;;;;9.30;88.84;101125.88;5093915;28;20047;-83
2021/04/12 13:46:48;;;;;;;2.97;1.27;;;;;;;9.71;84.71;101134.34;5081289;28;20055;-77
2021/04/12 13:49:58;;;;;;;2.00;0.40;;;;;;;10.08;75.24;101130.91;5093036;28;20571;-77
2021/04/12 13:53:28;;;;;;;1.30;1.05;;;;;;;10.12;72.34;101128.84;5092732;28;20051;-80
2021/04/12 13:56:38;;;;;;;0.98;0.45;;;;;;;9.54;69.46;101133.59;5079435;28;20055;-78
2021/04/12 13:59:48;;;;;;;0.65;0.43;;;;;;;8.98;70.48;101130.25;5078936;28;20443;-78
2021/04/12 14:02:54;;;;;;;0.30;0.30;;;;;;;8.46;67.82;101128.69;5079554;28;20396;-77
2021/04/12 14:06:22;;;;;;;0.40;0.40;;;;;;;8.11;76.10;101135.75;5080279;28;20051;-76
2021/04/12 14:09:47;;;;;;;0.65;0.50;;;;;;;8.25;79.00;101132.69;5098671;28;20427;-77
2021/04/12 14:12:53;;;;;;;0.38;0.20;;;;;;;8.32;77.62;101130.56;5081190;28;20051;-77
2021/04/12 14:16:11;;;;;;;0.50;0.50;;;;;;;8.33;81.08;101131.34;5079995;28;20051;-77
2021/04/12 14:19:24;;;;;;;0.35;0.32;;;;;;;8.02;77.11;101133.53;5081347;28;20051;-77
2021/04/12 14:22:35;;;;;;;0.63;0.63;;;;;;;7.74;83.89;101127.75;5100170;28;20046;-77
2021/04/12 14:25:43;;;;;;;4.95;1.20;;;;;;;7.58;85.09;101129.22;5099897;28;20121;-77
2021/04/12 14:28:50;;;;;;;6.82;1.20;;;;;;;7.64;91.10;101130.31;5100051;28;20046;-76
2021/04/12 14:32:01;;;;;;;1.00;0.30;;;;;;;7.84;88.96;101129.56;5112874;28;20050;-77
2021/04/12 14:35:12;;;;;;;0.50;0.40;;;;;;;7.88;84.16;101122.75;5100244;28;20046;-76
2021/04/12 14:38:23;;;;;;;0.75;0.68;;;;;;;8.04;82.22;101124.78;5099908;28;20043;-76
2021/04/12 14:41:30;;;;;;;8.73;1.53;;;;;;;8.03;77.89;101128.78;5112630;28;20055;-77
2021/04/12 14:44:39;;;;;;;13.13;3.90;;;;;;;8.22;80.48;101122.44;5099738;28;20597;-79
2021/04/12 14:47:50;;;;;;;2.05;0.60;;;;;;;8.19;79.08;101126.06;5099997;28;20047;-78
2021/04/12 14:50:59;;;;;;;6.40;1.38;;;;;;;8.42;82.99;101123.22;5100149;28;20403;-80
2021/04/12 14:54:24;;;;;;;1.50;1.02;;;;;;;8.27;78.85;101111.63;5099951;28;20495;-76
2021/04/12 14:57:37;;;;;;;0.50;0.50;;;;;;;8.08;80.70;101115.19;5099627;28;20052;-76
2021/04/12 15:01:00;;;;;;;0.40;0.40;;;;;;;7.92;84.23;101109.59;5099833;28;20051;-77
2021/04/12 15:04:12;;;;;;;2.15;0.60;;;;;;;8.11;81.90;101116.31;5099651;28;20054;-78
2021/04/12 15:07:16;;;;;;;0.75;0.73;;;;;;;8.34;78.22;101119.03;5099758;28;20047;-78
2021/04/12 15:10:38;;;;;;;1.65;0.40;;;;;;;8.42;79.52;101117.69;5099945;28;20161;-77
2021/04/12 15:13:44;;;;;;;0.85;0.75;;;;;;;8.31;80.02;101117.91;5112681;28;20042;-76
2021/04/12 15:17:10;;;;;;;7.15;1.73;;;;;;;8.45;80.91;101122.34;5099626;28;20067;-78
2021/04/12 15:20:21;;;;;;;2.72;1.25;;;;;;;8.38;73.33;101122.53;5090507;28;20467;-78
2021/04/12 15:23:38;;;;;;;0.57;0.52;;;;;;;8.33;72.36;101117.47;5081901;28;20051;-76
2021/04/12 15:26:48;;;;;;;5.30;2.15;;;;;;;8.42;74.96;101122.44;5096538;28;20051;-75
2021/04/12 15:30:17;;;;;;;1.70;1.25;;;;;;;8.62;71.37;101115.63;5083811;28;20047;-75
2021/04/12 15:33:24;;;;;;;3.63;1.33;;;;;;;8.84;71.29;101122.25;5096507;28;20067;-77
2021/04/12 15:36:45;;;;;;;0.95;0.95;;;;;;;9.04;68.25;101114.63;5083546;28;20051;-77